LW69 weather

Dolneni Airport
Dolneni, Pelagonia Statistical Region, Macedonia

Public forecast

Using degrees Celsius for public forecast. Weather courtesy of forecast.io.

METAR (pilot weather report)

Closest report is Ohrid St. Paul the Apostle Airport, 33.3 nm (61.7 km) WSW. Retrieved 2019/05/20 14:30 UTC (0 seconds ago):

LWOH 201430Z 35003KT 9999 FEW030TCU BKN050 14/08 Q1013

TAF (pilot weather forecast)

Closest forecast is Ohrid St. Paul the Apostle Airport, 33.3 nm (61.7 km) WSW. Retrieved 2019/05/20 12:18 UTC (2 hours ago):

TAF LWOH 201130Z 2012/2112 14008KT 9999 SCT033 BKN050 TEMPO 2012/2016 24010KT RA SCT025 OVC04O PROB40 TEMPO 2012/2016 VRB15KT TSRA FEW033CB OVC040